sensor_id;sensor_type;location;lat;lon;timestamp;pressure;altitude;pressure_sealevel;temperature;humidity
65872;BME280;52653;50.080;21.992;2023-02-15T00:01:28;100810.38;;;4.04;79.56
65872;BME280;52653;50.080;21.992;2023-02-15T00:04:22;100813.81;;;4.07;79.86
65872;BME280;52653;50.080;21.992;2023-02-15T00:07:09;100809.20;;;4.12;79.86
65872;BME280;52653;50.080;21.992;2023-02-15T00:10:02;100814.13;;;4.13;79.61
65872;BME280;52653;50.080;21.992;2023-02-15T00:12:55;100814.39;;;4.12;79.71
65872;BME280;52653;50.080;21.992;2023-02-15T00:15:48;100817.34;;;4.07;79.73
65872;BME280;52653;50.080;21.992;2023-02-15T00:18:41;100816.88;;;4.09;80.04
65872;BME280;52653;50.080;21.992;2023-02-15T00:21:35;100817.95;;;4.09;80.21
65872;BME280;52653;50.080;21.992;2023-02-15T00:24:28;100815.67;;;4.09;80.22
65872;BME280;52653;50.080;21.992;2023-02-15T00:27:22;100810.60;;;4.08;80.04
65872;BME280;52653;50.080;21.992;2023-02-15T00:30:15;100807.30;;;4.05;79.90
65872;BME280;52653;50.080;21.992;2023-02-15T00:32:57;100813.59;;;4.02;79.61
65872;BME280;52653;50.080;21.992;2023-02-15T00:35:55;100813.63;;;3.99;79.64
65872;BME280;52653;50.080;21.992;2023-02-15T00:39:02;100807.46;;;4.04;80.14
65872;BME280;52653;50.080;21.992;2023-02-15T00:41:56;100800.54;;;4.08;79.82
65872;BME280;52653;50.080;21.992;2023-02-15T00:44:47;100801.42;;;4.05;79.67
65872;BME280;52653;50.080;21.992;2023-02-15T00:47:40;100802.45;;;4.05;80.10
65872;BME280;52653;50.080;21.992;2023-02-15T00:50:34;100801.89;;;4.04;80.05
65872;BME280;52653;50.080;21.992;2023-02-15T00:53:27;100801.20;;;4.04;80.30
65872;BME280;52653;50.080;21.992;2023-02-15T00:56:20;100803.90;;;4.02;80.39
65872;BME280;52653;50.080;21.992;2023-02-15T00:59:13;100799.19;;;4.02;80.48
65872;BME280;52653;50.080;21.992;2023-02-15T01:02:06;100797.79;;;4.06;80.68
65872;BME280;52653;50.080;21.992;2023-02-15T01:04:59;100793.66;;;4.10;80.41
65872;BME280;52653;50.080;21.992;2023-02-15T01:07:47;100793.37;;;4.16;80.37
65872;BME280;52653;50.080;21.992;2023-02-15T01:10:39;100790.16;;;4.22;80.39
65872;BME280;52653;50.080;21.992;2023-02-15T01:13:35;100790.93;;;4.27;80.29
65872;BME280;52653;50.080;21.992;2023-02-15T01:16:29;100784.62;;;4.30;79.69
65872;BME280;52653;50.080;21.992;2023-02-15T01:19:23;100778.73;;;4.26;79.67
65872;BME280;52653;50.080;21.992;2023-02-15T01:22:16;100778.94;;;4.23;79.67
65872;BME280;52653;50.080;21.992;2023-02-15T01:25:03;100778.64;;;4.20;79.80
65872;BME280;52653;50.080;21.992;2023-02-15T01:27:55;100775.61;;;4.19;79.81
65872;BME280;52653;50.080;21.992;2023-02-15T01:30:47;100775.61;;;4.10;79.37
65872;BME280;52653;50.080;21.992;2023-02-15T01:33:40;100776.61;;;4.01;79.46
65872;BME280;52653;50.080;21.992;2023-02-15T01:36:34;100774.38;;;3.94;79.61
65872;BME280;52653;50.080;21.992;2023-02-15T01:39:27;100773.02;;;3.91;79.63
65872;BME280;52653;50.080;21.992;2023-02-15T01:42:24;100769.92;;;3.92;79.94
65872;BME280;52653;50.080;21.992;2023-02-15T01:45:22;100769.80;;;3.93;79.74
65872;BME280;52653;50.080;21.992;2023-02-15T01:48:19;100769.17;;;3.94;79.70
65872;BME280;52653;50.080;21.992;2023-02-15T01:51:15;100765.74;;;3.99;79.51
65872;BME280;52653;50.080;21.992;2023-02-15T01:54:17;100765.73;;;4.03;79.62
65872;BME280;52653;50.080;21.992;2023-02-15T01:57:13;100764.66;;;4.06;79.29
65872;BME280;52653;50.080;21.992;2023-02-15T02:00:10;100757.63;;;4.00;78.87
65872;BME280;52653;50.080;21.992;2023-02-15T02:03:20;100755.34;;;3.91;79.07
65872;BME280;52653;50.080;21.992;2023-02-15T02:06:17;100751.97;;;3.86;79.23
65872;BME280;52653;50.080;21.992;2023-02-15T02:09:10;100748.20;;;3.79;78.96
65872;BME280;52653;50.080;21.992;2023-02-15T02:11:56;100749.17;;;3.73;79.17
65872;BME280;52653;50.080;21.992;2023-02-15T02:14:51;100749.17;;;3.66;78.99
65872;BME280;52653;50.080;21.992;2023-02-15T02:17:39;100753.55;;;3.63;79.28
65872;BME280;52653;50.080;21.992;2023-02-15T02:20:58;100749.96;;;3.64;79.29
65872;BME280;52653;50.080;21.992;2023-02-15T02:24:07;100745.62;;;3.68;79.35
65872;BME280;52653;50.080;21.992;2023-02-15T02:27:30;100746.67;;;3.72;79.27
65872;BME280;52653;50.080;21.992;2023-02-15T02:30:49;100745.53;;;3.77;79.25
65872;BME280;52653;50.080;21.992;2023-02-15T02:33:55;100739.21;;;3.80;79.17
65872;BME280;52653;50.080;21.992;2023-02-15T02:36:52;100736.63;;;3.84;79.27
65872;BME280;52653;50.080;21.992;2023-02-15T02:39:54;100737.08;;;3.87;79.13
65872;BME280;52653;50.080;21.992;2023-02-15T02:42:52;100742.13;;;3.87;78.90
65872;BME280;52653;50.080;21.992;2023-02-15T02:45:52;100747.41;;;3.89;78.89
65872;BME280;52653;50.080;21.992;2023-02-15T02:48:49;100747.92;;;3.96;79.08
65872;BME280;52653;50.080;21.992;2023-02-15T02:51:43;100746.61;;;3.98;78.85
65872;BME280;52653;50.080;21.992;2023-02-15T02:54:37;100749.02;;;3.98;78.73
65872;BME280;52653;50.080;21.992;2023-02-15T02:57:31;100747.74;;;3.96;79.03
65872;BME280;52653;50.080;21.992;2023-02-15T03:00:27;100749.23;;;3.94;78.87
65872;BME280;52653;50.080;21.992;2023-02-15T03:03:26;100750.07;;;3.86;78.57
65872;BME280;52653;50.080;21.992;2023-02-15T03:06:22;100748.20;;;3.79;78.80
65872;BME280;52653;50.080;21.992;2023-02-15T03:09:27;100750.83;;;3.72;78.67
65872;BME280;52653;50.080;21.992;2023-02-15T03:12:28;100750.34;;;3.69;78.80
65872;BME280;52653;50.080;21.992;2023-02-15T03:15:25;100750.73;;;3.66;78.82
65872;BME280;52653;50.080;21.992;2023-02-15T03:18:35;100751.66;;;3.64;78.96
65872;BME280;52653;50.080;21.992;2023-02-15T03:21:33;100752.23;;;3.61;78.96
65872;BME280;52653;50.080;21.992;2023-02-15T03:24:32;100755.95;;;3.55;78.74
65872;BME280;52653;50.080;21.992;2023-02-15T03:27:31;100756.15;;;3.55;79.30
65872;BME280;52653;50.080;21.992;2023-02-15T03:30:28;100752.96;;;3.57;79.34
65872;BME280;52653;50.080;21.992;2023-02-15T03:33:23;100749.94;;;3.56;78.81
65872;BME280;52653;50.080;21.992;2023-02-15T03:36:20;100751.11;;;3.51;78.77
65872;BME280;52653;50.080;21.992;2023-02-15T03:39:19;100752.73;;;3.48;78.77
65872;BME280;52653;50.080;21.992;2023-02-15T03:42:16;100752.46;;;3.47;78.74
65872;BME280;52653;50.080;21.992;2023-02-15T03:45:13;100750.67;;;3.49;78.68
65872;BME280;52653;50.080;21.992;2023-02-15T03:48:08;100750.02;;;3.54;78.54
65872;BME280;52653;50.080;21.992;2023-02-15T03:51:04;100743.95;;;3.62;78.42
65872;BME280;52653;50.080;21.992;2023-02-15T03:54:17;100740.11;;;3.69;78.28
65872;BME280;52653;50.080;21.992;2023-02-15T03:57:30;100739.33;;;3.67;77.86
65872;BME280;52653;50.080;21.992;2023-02-15T04:00:43;100736.52;;;3.63;78.09
65872;BME280;52653;50.080;21.992;2023-02-15T04:03:59;100733.88;;;3.61;78.15
65872;BME280;52653;50.080;21.992;2023-02-15T04:06:53;100732.91;;;3.59;78.16
65872;BME280;52653;50.080;21.992;2023-02-15T04:09:48;100730.98;;;3.55;78.50
65872;BME280;52653;50.080;21.992;2023-02-15T04:12:59;100735.74;;;3.48;78.64
65872;BME280;52653;50.080;21.992;2023-02-15T04:15:53;100735.84;;;3.47;78.41
65872;BME280;52653;50.080;21.992;2023-02-15T04:18:57;100735.16;;;3.47;78.50
65872;BME280;52653;50.080;21.992;2023-02-15T04:22:00;100732.28;;;3.49;78.30
65872;BME280;52653;50.080;21.992;2023-02-15T04:25:10;100729.95;;;3.55;78.51
65872;BME280;52653;50.080;21.992;2023-02-15T04:27:55;100728.66;;;3.61;78.47
65872;BME280;52653;50.080;21.992;2023-02-15T04:30:47;100724.93;;;3.67;78.58
65872;BME280;52653;50.080;21.992;2023-02-15T04:33:40;100728.38;;;3.70;78.40
65872;BME280;52653;50.080;21.992;2023-02-15T04:36:35;100721.82;;;3.71;78.45
65872;BME280;52653;50.080;21.992;2023-02-15T04:39:13;100712.77;;;3.70;78.27
65872;BME280;52653;50.080;21.992;2023-02-15T04:42:07;100717.42;;;3.70;78.26
65872;BME280;52653;50.080;21.992;2023-02-15T04:45:00;100716.73;;;3.66;78.20
65872;BME280;52653;50.080;21.992;2023-02-15T04:47:54;100712.38;;;3.57;77.96
65872;BME280;52653;50.080;21.992;2023-02-15T04:50:47;100719.77;;;3.48;78.00
65872;BME280;52653;50.080;21.992;2023-02-15T04:53:40;100718.58;;;3.41;78.21
65872;BME280;52653;50.080;21.992;2023-02-15T04:56:33;100720.54;;;3.39;78.40
65872;BME280;52653;50.080;21.992;2023-02-15T04:59:30;100722.25;;;3.42;78.45
65872;BME280;52653;50.080;21.992;2023-02-15T05:02:23;100721.89;;;3.45;78.49
65872;BME280;52653;50.080;21.992;2023-02-15T05:05:18;100723.36;;;3.47;78.19
65872;BME280;52653;50.080;21.992;2023-02-15T05:08:11;100720.86;;;3.50;78.37
65872;BME280;52653;50.080;21.992;2023-02-15T05:11:04;100720.85;;;3.57;78.82
65872;BME280;52653;50.080;21.992;2023-02-15T05:13:50;100727.61;;;3.61;78.70
65872;BME280;52653;50.080;21.992;2023-02-15T05:16:43;100727.23;;;3.60;78.62
65872;BME280;52653;50.080;21.992;2023-02-15T05:19:36;100726.42;;;3.54;78.38
65872;BME280;52653;50.080;21.992;2023-02-15T05:22:29;100729.32;;;3.48;78.73
65872;BME280;52653;50.080;21.992;2023-02-15T05:25:22;100730.54;;;3.45;78.70
65872;BME280;52653;50.080;21.992;2023-02-15T05:28:32;100734.19;;;3.42;78.74
65872;BME280;52653;50.080;21.992;2023-02-15T05:31:24;100738.16;;;3.41;78.61
65872;BME280;52653;50.080;21.992;2023-02-15T05:34:18;100735.48;;;3.43;78.61
65872;BME280;52653;50.080;21.992;2023-02-15T05:37:10;100735.14;;;3.47;78.61
65872;BME280;52653;50.080;21.992;2023-02-15T05:40:04;100736.71;;;3.55;78.77
65872;BME280;52653;50.080;21.992;2023-02-15T05:42:58;100738.15;;;3.64;78.76
65872;BME280;52653;50.080;21.992;2023-02-15T05:45:48;100740.55;;;3.63;78.12
65872;BME280;52653;50.080;21.992;2023-02-15T05:48:42;100744.89;;;3.59;78.12
65872;BME280;52653;50.080;21.992;2023-02-15T05:51:36;100744.75;;;3.56;78.24
65872;BME280;52653;50.080;21.992;2023-02-15T05:54:23;100743.05;;;3.53;78.55
65872;BME280;52653;50.080;21.992;2023-02-15T05:57:15;100745.16;;;3.50;78.52
65872;BME280;52653;50.080;21.992;2023-02-15T06:00:14;100743.48;;;3.47;78.73
65872;BME280;52653;50.080;21.992;2023-02-15T06:03:08;100742.47;;;3.44;78.75
65872;BME280;52653;50.080;21.992;2023-02-15T06:06:02;100749.28;;;3.42;78.74
65872;BME280;52653;50.080;21.992;2023-02-15T06:08:56;100754.10;;;3.44;78.69
65872;BME280;52653;50.080;21.992;2023-02-15T06:11:43;100758.21;;;3.51;78.81
65872;BME280;52653;50.080;21.992;2023-02-15T06:14:36;100756.54;;;3.56;77.97
65872;BME280;52653;50.080;21.992;2023-02-15T06:17:29;100760.80;;;3.58;77.60
65872;BME280;52653;50.080;21.992;2023-02-15T06:20:22;100760.91;;;3.61;77.45
65872;BME280;52653;50.080;21.992;2023-02-15T06:23:14;100764.70;;;3.64;77.38
65872;BME280;52653;50.080;21.992;2023-02-15T06:26:07;100765.21;;;3.64;76.83
65872;BME280;52653;50.080;21.992;2023-02-15T06:29:00;100765.19;;;3.63;76.83
65872;BME280;52653;50.080;21.992;2023-02-15T06:31:54;100767.61;;;3.63;76.65
65872;BME280;52653;50.080;21.992;2023-02-15T06:34:47;100770.07;;;3.60;76.42
65872;BME280;52653;50.080;21.992;2023-02-15T06:37:40;100772.85;;;3.60;76.68
65872;BME280;52653;50.080;21.992;2023-02-15T06:40:31;100772.11;;;3.63;76.54
65872;BME280;52653;50.080;21.992;2023-02-15T06:43:24;100773.74;;;3.65;76.86
65872;BME280;52653;50.080;21.992;2023-02-15T06:46:17;100773.30;;;3.62;77.26
65872;BME280;52653;50.080;21.992;2023-02-15T06:49:10;100772.66;;;3.59;77.38
65872;BME280;52653;50.080;21.992;2023-02-15T06:52:04;100774.09;;;3.65;77.38
65872;BME280;52653;50.080;21.992;2023-02-15T06:54:57;100773.88;;;3.75;76.93
65872;BME280;52653;50.080;21.992;2023-02-15T06:57:50;100766.92;;;3.90;76.63
65872;BME280;52653;50.080;21.992;2023-02-15T07:00:43;100767.57;;;4.05;75.91
65872;BME280;52653;50.080;21.992;2023-02-15T07:03:30;100764.86;;;4.11;74.53
65872;BME280;52653;50.080;21.992;2023-02-15T07:06:23;100764.49;;;4.14;74.58
65872;BME280;52653;50.080;21.992;2023-02-15T07:09:16;100767.20;;;4.25;74.86
65872;BME280;52653;50.080;21.992;2023-02-15T07:12:10;100766.09;;;4.35;74.39
65872;BME280;52653;50.080;21.992;2023-02-15T07:15:22;100769.59;;;4.44;74.25
65872;BME280;52653;50.080;21.992;2023-02-15T07:18:01;100761.29;;;4.49;73.63
65872;BME280;52653;50.080;21.992;2023-02-15T07:20:55;100763.75;;;4.54;73.08
65872;BME280;52653;50.080;21.992;2023-02-15T07:23:39;100762.88;;;4.58;72.75
65872;BME280;52653;50.080;21.992;2023-02-15T07:26:34;100764.67;;;4.59;72.59
65872;BME280;52653;50.080;21.992;2023-02-15T07:29:21;100760.25;;;4.62;72.23
65872;BME280;52653;50.080;21.992;2023-02-15T07:32:14;100759.96;;;4.63;72.03
65872;BME280;52653;50.080;21.992;2023-02-15T07:35:07;100763.07;;;4.67;71.54
65872;BME280;52653;50.080;21.992;2023-02-15T07:37:40;100762.48;;;4.69;71.16
65872;BME280;52653;50.080;21.992;2023-02-15T07:40:33;100761.16;;;4.71;71.05
65872;BME280;52653;50.080;21.992;2023-02-15T07:43:25;100757.58;;;4.73;71.19
65872;BME280;52653;50.080;21.992;2023-02-15T07:46:19;100759.96;;;4.71;71.10
65872;BME280;52653;50.080;21.992;2023-02-15T07:49:02;100765.36;;;4.68;71.19
65872;BME280;52653;50.080;21.992;2023-02-15T07:51:48;100761.98;;;4.70;71.39
65872;BME280;52653;50.080;21.992;2023-02-15T07:54:42;100760.21;;;4.78;71.17
65872;BME280;52653;50.080;21.992;2023-02-15T07:57:17;100755.20;;;4.91;71.15
65872;BME280;52653;50.080;21.992;2023-02-15T08:03:04;100745.38;;;5.25;70.27
65872;BME280;52653;50.080;21.992;2023-02-15T08:06:07;100745.04;;;5.48;69.70
65872;BME280;52653;50.080;21.992;2023-02-15T08:08:53;100744.30;;;5.61;69.17
65872;BME280;52653;50.080;21.992;2023-02-15T08:11:48;100738.54;;;5.75;68.53
65872;BME280;52653;50.080;21.992;2023-02-15T08:14:35;100737.79;;;5.88;68.20
65872;BME280;52653;50.080;21.992;2023-02-15T08:17:27;100741.30;;;5.98;67.88
65872;BME280;52653;50.080;21.992;2023-02-15T08:20:11;100735.54;;;6.12;67.81
65872;BME280;52653;50.080;21.992;2023-02-15T08:22:54;100730.70;;;6.23;67.34
65872;BME280;52653;50.080;21.992;2023-02-15T08:25:49;100734.58;;;6.35;66.92
65872;BME280;52653;50.080;21.992;2023-02-15T08:28:43;100732.85;;;6.40;66.24
65872;BME280;52653;50.080;21.992;2023-02-15T08:31:29;100727.29;;;6.46;66.05
65872;BME280;52653;50.080;21.992;2023-02-15T08:34:17;100731.00;;;6.47;65.60
65872;BME280;52653;50.080;21.992;2023-02-15T08:37:02;100727.57;;;6.44;65.26
65872;BME280;52653;50.080;21.992;2023-02-15T08:39:49;100729.02;;;6.40;65.48
65872;BME280;52653;50.080;21.992;2023-02-15T08:42:44;100727.39;;;6.44;65.34
65872;BME280;52653;50.080;21.992;2023-02-15T08:45:27;100732.38;;;6.52;65.85
65872;BME280;52653;50.080;21.992;2023-02-15T08:48:20;100734.66;;;6.58;65.24
65872;BME280;52653;50.080;21.992;2023-02-15T08:51:11;100734.79;;;6.57;64.53
65872;BME280;52653;50.080;21.992;2023-02-15T08:54:05;100732.94;;;6.59;64.20
65872;BME280;52653;50.080;21.992;2023-02-15T08:56:51;100730.96;;;6.62;63.36
65872;BME280;52653;50.080;21.992;2023-02-15T08:59:37;100728.75;;;6.69;63.23
65872;BME280;52653;50.080;21.992;2023-02-15T09:02:22;100722.63;;;6.79;62.78
65872;BME280;52653;50.080;21.992;2023-02-15T09:05:16;100724.30;;;6.94;62.16
65872;BME280;52653;50.080;21.992;2023-02-15T09:07:58;100723.27;;;7.05;62.18
65872;BME280;52653;50.080;21.992;2023-02-15T09:10:52;100722.19;;;7.22;61.99
65872;BME280;52653;50.080;21.992;2023-02-15T09:13:45;100719.89;;;7.26;60.09
65872;BME280;52653;50.080;21.992;2023-02-15T09:16:39;100721.54;;;7.17;58.98
65872;BME280;52653;50.080;21.992;2023-02-15T09:19:24;100717.33;;;7.10;60.10
65872;BME280;52653;50.080;21.992;2023-02-15T09:22:06;100717.62;;;7.09;60.30
65872;BME280;52653;50.080;21.992;2023-02-15T09:24:58;100710.76;;;7.13;60.85
65872;BME280;52653;50.080;21.992;2023-02-15T09:27:32;100710.75;;;7.18;61.15
65872;BME280;52653;50.080;21.992;2023-02-15T09:30:25;100709.39;;;7.26;61.07
65872;BME280;52653;50.080;21.992;2023-02-15T09:33:18;100704.09;;;7.35;61.38
65872;BME280;52653;50.080;21.992;2023-02-15T09:36:18;100702.46;;;7.39;60.54
65872;BME280;52653;50.080;21.992;2023-02-15T09:39:07;100700.09;;;7.35;60.13
65872;BME280;52653;50.080;21.992;2023-02-15T09:42:08;100693.56;;;7.27;60.59
65872;BME280;52653;50.080;21.992;2023-02-15T09:45:25;100689.67;;;7.25;60.81
65872;BME280;52653;50.080;21.992;2023-02-15T09:51:38;100688.55;;;7.23;60.83
65872;BME280;52653;50.080;21.992;2023-02-15T09:54:51;100689.99;;;7.13;59.74
65872;BME280;52653;50.080;21.992;2023-02-15T09:57:46;100689.17;;;7.02;60.69
65872;BME280;52653;50.080;21.992;2023-02-15T10:00:50;100682.88;;;6.97;61.09
65872;BME280;52653;50.080;21.992;2023-02-15T10:03:56;100685.17;;;6.98;61.13
65872;BME280;52653;50.080;21.992;2023-02-15T10:06:59;100675.75;;;6.92;60.49
65872;BME280;52653;50.080;21.992;2023-02-15T10:10:11;100674.58;;;6.82;60.36
65872;BME280;52653;50.080;21.992;2023-02-15T10:13:21;100672.70;;;6.84;61.57
65872;BME280;52653;50.080;21.992;2023-02-15T10:16:26;100669.88;;;6.88;60.71
65872;BME280;52653;50.080;21.992;2023-02-15T10:19:26;100664.48;;;6.83;60.82
65872;BME280;52653;50.080;21.992;2023-02-15T10:22:30;100659.38;;;6.81;60.73
65872;BME280;52653;50.080;21.992;2023-02-15T10:25:30;100656.69;;;6.67;60.56
65872;BME280;52653;50.080;21.992;2023-02-15T10:28:19;100648.91;;;6.70;61.50
65872;BME280;52653;50.080;21.992;2023-02-15T10:31:22;100647.12;;;6.79;61.75
65872;BME280;52653;50.080;21.992;2023-02-15T10:34:17;100643.08;;;6.90;62.12
65872;BME280;52653;50.080;21.992;2023-02-15T10:37:24;100636.40;;;6.99;61.73
65872;BME280;52653;50.080;21.992;2023-02-15T10:40:07;100632.48;;;7.02;61.15
65872;BME280;52653;50.080;21.992;2023-02-15T10:43:16;100630.80;;;7.05;61.07
65872;BME280;52653;50.080;21.992;2023-02-15T10:46:21;100625.67;;;7.09;60.59
65872;BME280;52653;50.080;21.992;2023-02-15T10:49:35;100622.91;;;7.16;60.59
65872;BME280;52653;50.080;21.992;2023-02-15T10:52:45;100621.54;;;7.23;60.45
65872;BME280;52653;50.080;21.992;2023-02-15T10:55:43;100616.06;;;7.33;60.32
65872;BME280;52653;50.080;21.992;2023-02-15T10:58:51;100615.42;;;7.41;60.20
65872;BME280;52653;50.080;21.992;2023-02-15T11:01:51;100613.45;;;7.46;59.62
65872;BME280;52653;50.080;21.992;2023-02-15T11:04:55;100607.51;;;7.51;59.84
65872;BME280;52653;50.080;21.992;2023-02-15T11:07:55;100603.27;;;7.56;59.08
65872;BME280;52653;50.080;21.992;2023-02-15T11:10:51;100598.02;;;7.56;59.06
65872;BME280;52653;50.080;21.992;2023-02-15T11:13:51;100598.92;;;7.57;58.88
65872;BME280;52653;50.080;21.992;2023-02-15T11:16:49;100595.20;;;7.62;59.59
65872;BME280;52653;50.080;21.992;2023-02-15T11:19:32;100596.40;;;7.67;59.00
65872;BME280;52653;50.080;21.992;2023-02-15T11:22:27;100601.45;;;7.74;58.58
65872;BME280;52653;50.080;21.992;2023-02-15T11:25:19;100600.14;;;7.77;57.86
65872;BME280;52653;50.080;21.992;2023-02-15T11:28:20;100592.02;;;7.80;57.39
65872;BME280;52653;50.080;21.992;2023-02-15T11:31:17;100581.29;;;7.84;57.72
65872;BME280;52653;50.080;21.992;2023-02-15T11:34:15;100577.92;;;7.89;57.18
65872;BME280;52653;50.080;21.992;2023-02-15T11:37:08;100575.48;;;7.88;57.14
65872;BME280;52653;50.080;21.992;2023-02-15T11:40:26;100573.43;;;7.84;57.17
65872;BME280;52653;50.080;21.992;2023-02-15T11:43:16;100574.67;;;7.85;57.71
65872;BME280;52653;50.080;21.992;2023-02-15T11:46:12;100573.88;;;7.81;56.93
65872;BME280;52653;50.080;21.992;2023-02-15T11:49:12;100573.72;;;7.75;57.28
65872;BME280;52653;50.080;21.992;2023-02-15T11:52:07;100573.66;;;7.73;57.21
65872;BME280;52653;50.080;21.992;2023-02-15T11:55:00;100570.55;;;7.74;56.97
65872;BME280;52653;50.080;21.992;2023-02-15T11:57:54;100562.80;;;7.77;57.09
65872;BME280;52653;50.080;21.992;2023-02-15T12:00:51;100557.52;;;7.83;57.65
65872;BME280;52653;50.080;21.992;2023-02-15T12:03:47;100557.34;;;7.90;58.14
65872;BME280;52653;50.080;21.992;2023-02-15T12:06:46;100554.15;;;7.95;57.51
65872;BME280;52653;50.080;21.992;2023-02-15T12:09:48;100551.37;;;7.96;57.18
65872;BME280;52653;50.080;21.992;2023-02-15T12:12:34;100548.17;;;8.08;57.60
65872;BME280;52653;50.080;21.992;2023-02-15T12:15:31;100542.27;;;8.17;57.09
65872;BME280;52653;50.080;21.992;2023-02-15T12:18:27;100533.23;;;8.19;56.74
65872;BME280;52653;50.080;21.992;2023-02-15T12:21:31;100527.98;;;8.26;57.00
65872;BME280;52653;50.080;21.992;2023-02-15T12:24:29;100526.35;;;8.32;56.27
65872;BME280;52653;50.080;21.992;2023-02-15T12:27:25;100516.77;;;8.39;56.71
65872;BME280;52653;50.080;21.992;2023-02-15T12:30:21;100514.80;;;8.46;56.37
65872;BME280;52653;50.080;21.992;2023-02-15T12:33:12;100513.50;;;8.50;56.34
65872;BME280;52653;50.080;21.992;2023-02-15T12:36:12;100513.14;;;8.57;55.77
65872;BME280;52653;50.080;21.992;2023-02-15T12:39:16;100510.02;;;8.60;55.47
65872;BME280;52653;50.080;21.992;2023-02-15T12:42:17;100502.45;;;8.56;54.17
65872;BME280;52653;50.080;21.992;2023-02-15T12:45:20;100501.23;;;8.49;54.74
65872;BME280;52653;50.080;21.992;2023-02-15T12:48:16;100494.17;;;8.53;55.14
65872;BME280;52653;50.080;21.992;2023-02-15T12:51:13;100492.48;;;8.56;55.00
65872;BME280;52653;50.080;21.992;2023-02-15T12:54:03;100491.63;;;8.57;55.46
65872;BME280;52653;50.080;21.992;2023-02-15T12:57:24;100487.40;;;8.64;55.48
65872;BME280;52653;50.080;21.992;2023-02-15T13:00:29;100483.16;;;8.71;55.16
65872;BME280;52653;50.080;21.992;2023-02-15T13:03:23;100479.34;;;8.80;55.26
65872;BME280;52653;50.080;21.992;2023-02-15T13:06:20;100478.88;;;8.84;54.67
65872;BME280;52653;50.080;21.992;2023-02-15T13:09:17;100479.19;;;8.82;54.12
65872;BME280;52653;50.080;21.992;2023-02-15T13:12:20;100470.37;;;8.78;53.61
65872;BME280;52653;50.080;21.992;2023-02-15T13:15:27;100464.00;;;8.75;54.16
65872;BME280;52653;50.080;21.992;2023-02-15T13:18:16;100459.82;;;8.76;54.56
65872;BME280;52653;50.080;21.992;2023-02-15T13:21:24;100463.42;;;8.81;54.59
65872;BME280;52653;50.080;21.992;2023-02-15T13:24:22;100458.73;;;8.82;54.08
65872;BME280;52653;50.080;21.992;2023-02-15T13:27:20;100455.02;;;8.81;54.48
65872;BME280;52653;50.080;21.992;2023-02-15T13:30:27;100455.92;;;8.82;54.35
65872;BME280;52653;50.080;21.992;2023-02-15T13:33:27;100452.52;;;8.78;53.72
65872;BME280;52653;50.080;21.992;2023-02-15T13:36:22;100452.24;;;8.73;53.62
65872;BME280;52653;50.080;21.992;2023-02-15T13:39:24;100447.64;;;8.71;53.44
65872;BME280;52653;50.080;21.992;2023-02-15T13:42:20;100437.55;;;8.73;54.10
65872;BME280;52653;50.080;21.992;2023-02-15T13:45:39;100434.48;;;8.77;53.99
65872;BME280;52653;50.080;21.992;2023-02-15T13:48:36;100435.43;;;8.72;53.96
65872;BME280;52653;50.080;21.992;2023-02-15T13:51:45;100437.43;;;8.76;54.37
65872;BME280;52653;50.080;21.992;2023-02-15T13:54:51;100433.30;;;8.79;54.31
65872;BME280;52653;50.080;21.992;2023-02-15T13:58:06;100434.59;;;8.82;54.01
65872;BME280;52653;50.080;21.992;2023-02-15T14:01:08;100436.67;;;8.82;53.73
65872;BME280;52653;50.080;21.992;2023-02-15T14:07:49;100437.70;;;8.71;53.20
65872;BME280;52653;50.080;21.992;2023-02-15T14:10:54;100436.58;;;8.67;53.35
65872;BME280;52653;50.080;21.992;2023-02-15T14:17:01;100433.88;;;8.55;54.11
65872;BME280;52653;50.080;21.992;2023-02-15T14:20:01;100433.27;;;8.51;54.04
65872;BME280;52653;50.080;21.992;2023-02-15T14:23:01;100433.39;;;8.48;54.08
65872;BME280;52653;50.080;21.992;2023-02-15T14:25:54;100434.71;;;8.45;54.05
65872;BME280;52653;50.080;21.992;2023-02-15T14:28:45;100431.46;;;8.40;53.93
65872;BME280;52653;50.080;21.992;2023-02-15T14:31:37;100429.66;;;8.38;54.51
65872;BME280;52653;50.080;21.992;2023-02-15T14:34:47;100425.77;;;8.36;54.45
65872;BME280;52653;50.080;21.992;2023-02-15T14:37:46;100419.67;;;8.29;54.90
65872;BME280;52653;50.080;21.992;2023-02-15T14:40:50;100418.52;;;8.24;54.92
65872;BME280;52653;50.080;21.992;2023-02-15T14:44:06;100419.30;;;8.20;55.14
65872;BME280;52653;50.080;21.992;2023-02-15T14:47:07;100420.98;;;8.16;55.21
65872;BME280;52653;50.080;21.992;2023-02-15T14:53:39;100416.16;;;8.04;55.37
65872;BME280;52653;50.080;21.992;2023-02-15T14:56:33;100411.52;;;8.00;55.70
65872;BME280;52653;50.080;21.992;2023-02-15T14:59:21;100412.80;;;7.94;55.86
65872;BME280;52653;50.080;21.992;2023-02-15T15:02:15;100407.83;;;7.83;55.94
65872;BME280;52653;50.080;21.992;2023-02-15T15:05:09;100413.02;;;7.74;56.12
65872;BME280;52653;50.080;21.992;2023-02-15T15:08:03;100406.61;;;7.68;56.27
65872;BME280;52653;50.080;21.992;2023-02-15T15:14:43;100401.38;;;7.46;56.72
65872;BME280;52653;50.080;21.992;2023-02-15T15:17:57;100398.79;;;7.33;56.96
65872;BME280;52653;50.080;21.992;2023-02-15T15:20:50;100397.78;;;7.20;57.30
65872;BME280;52653;50.080;21.992;2023-02-15T15:23:44;100396.33;;;7.04;57.49
65872;BME280;52653;50.080;21.992;2023-02-15T15:26:32;100397.30;;;6.88;58.27
65872;BME280;52653;50.080;21.992;2023-02-15T15:29:08;100398.27;;;6.72;58.58
65872;BME280;52653;50.080;21.992;2023-02-15T15:31:56;100394.10;;;6.53;58.85
65872;BME280;52653;50.080;21.992;2023-02-15T15:35:13;100386.33;;;6.31;59.40
65872;BME280;52653;50.080;21.992;2023-02-15T15:38:27;100385.02;;;6.10;59.70
65872;BME280;52653;50.080;21.992;2023-02-15T15:41:33;100383.97;;;5.87;59.92